createdAt,value
2022-12-26T00:00:40.529Z,3.48
2022-12-26T00:02:46.286Z,3.51
2022-12-26T00:04:53.663Z,3.5
2022-12-26T00:07:00.731Z,3.52
2022-12-26T00:09:06.646Z,3.49
2022-12-26T00:11:11.710Z,3.47
2022-12-26T00:13:37.918Z,3.47
2022-12-26T00:15:46.355Z,3.51
2022-12-26T00:17:52.026Z,3.46
2022-12-26T00:19:57.256Z,3.49
2022-12-26T00:22:02.532Z,3.49
2022-12-26T00:24:08.109Z,3.48
2022-12-26T00:26:13.853Z,3.46
2022-12-26T00:28:19.110Z,3.46
2022-12-26T00:30:24.731Z,3.45
2022-12-26T00:32:30.099Z,3.44
2022-12-26T00:34:35.661Z,3.47
2022-12-26T00:36:41.185Z,3.48
2022-12-26T00:38:46.466Z,3.5
2022-12-26T00:40:53.519Z,3.51
2022-12-26T00:42:59.001Z,3.55
2022-12-26T00:45:04.384Z,3.53
2022-12-26T00:47:09.733Z,3.52
2022-12-26T00:49:17.091Z,3.52
2022-12-26T00:51:22.610Z,3.55
2022-12-26T00:53:28.287Z,3.53
2022-12-26T00:55:33.488Z,3.54
2022-12-26T00:57:38.535Z,3.56
2022-12-26T00:59:43.920Z,3.57
2022-12-26T01:01:49.507Z,3.58
2022-12-26T01:03:56.092Z,3.58
2022-12-26T01:06:01.648Z,3.61
2022-12-26T01:08:19.367Z,3.62
2022-12-26T01:10:29.089Z,3.66
2022-12-26T01:12:34.348Z,3.68
2022-12-26T01:14:39.557Z,3.72
2022-12-26T01:16:44.773Z,3.75
2022-12-26T01:18:50.296Z,3.73
2022-12-26T01:20:55.655Z,3.74
2022-12-26T01:23:00.864Z,3.74
2022-12-26T01:25:06.364Z,3.8
2022-12-26T01:27:11.825Z,3.8
2022-12-26T01:29:17.203Z,3.79
2022-12-26T01:31:22.418Z,3.8
2022-12-26T01:33:28.249Z,3.81
2022-12-26T01:35:33.535Z,3.81
2022-12-26T01:37:38.491Z,3.84
2022-12-26T01:39:43.886Z,3.82
2022-12-26T01:41:48.962Z,3.81
2022-12-26T01:43:54.437Z,3.82
2022-12-26T01:45:59.666Z,3.84
2022-12-26T01:48:05.350Z,3.87
2022-12-26T01:50:10.665Z,3.89
2022-12-26T01:52:16.003Z,3.87
2022-12-26T01:54:37.148Z,3.9
2022-12-26T01:56:47.470Z,3.86
2022-12-26T01:58:52.650Z,3.89
2022-12-26T02:00:57.982Z,3.89
2022-12-26T02:03:03.348Z,3.9
2022-12-26T02:05:08.953Z,3.87
2022-12-26T02:07:14.275Z,3.94
2022-12-26T02:09:19.475Z,3.93
2022-12-26T02:11:24.988Z,3.94
2022-12-26T02:13:30.035Z,3.94
2022-12-26T02:15:35.497Z,3.93
2022-12-26T02:17:41.140Z,3.92
2022-12-26T02:19:46.499Z,3.89
2022-12-26T02:21:51.655Z,3.93
2022-12-26T02:23:57.129Z,3.95
2022-12-26T02:26:02.647Z,3.93
2022-12-26T02:28:08.077Z,3.94
2022-12-26T02:30:13.188Z,3.94
2022-12-26T02:32:18.432Z,3.93
2022-12-26T02:34:24.054Z,3.93
2022-12-26T02:36:29.174Z,3.9
2022-12-26T02:38:34.245Z,3.88
2022-12-26T02:40:39.633Z,3.88
2022-12-26T02:42:45.373Z,3.91
2022-12-26T02:44:50.786Z,3.91
2022-12-26T02:46:56.167Z,3.92
2022-12-26T02:49:01.881Z,3.92
2022-12-26T02:51:07.359Z,3.92
2022-12-26T02:53:12.805Z,3.93
2022-12-26T02:55:18.271Z,3.89
2022-12-26T02:57:24.141Z,3.89
2022-12-26T02:59:54.728Z,3.89
2022-12-26T03:02:02.416Z,3.89
2022-12-26T03:04:09.435Z,3.89
2022-12-26T03:06:15.097Z,3.89
2022-12-26T03:08:20.274Z,3.9
2022-12-26T03:10:25.604Z,3.89
2022-12-26T03:12:30.827Z,3.96
2022-12-26T03:14:36.382Z,3.93
2022-12-26T03:16:41.889Z,3.94
2022-12-26T03:18:57.267Z,3.9
2022-12-26T03:21:05.451Z,3.91
2022-12-26T03:23:10.577Z,3.92
2022-12-26T03:25:15.607Z,3.92
2022-12-26T03:27:20.863Z,3.89
2022-12-26T03:29:26.479Z,3.88
2022-12-26T03:31:31.952Z,3.86
2022-12-26T03:33:37.349Z,3.88
2022-12-26T03:35:42.589Z,3.88
2022-12-26T03:37:50.034Z,3.88
2022-12-26T03:39:55.608Z,3.85
2022-12-26T03:42:02.680Z,3.84
2022-12-26T03:44:07.966Z,3.87
2022-12-26T03:46:12.979Z,3.86
2022-12-26T03:48:18.607Z,3.86
2022-12-26T03:50:23.705Z,3.84
2022-12-26T03:52:28.917Z,3.84
2022-12-26T03:54:34.208Z,3.86
2022-12-26T03:56:39.966Z,3.85
2022-12-26T03:58:45.446Z,3.84
2022-12-26T04:00:50.627Z,3.83
2022-12-26T04:02:56.063Z,3.85
2022-12-26T04:05:01.568Z,3.81
2022-12-26T04:07:07.037Z,3.84
2022-12-26T04:09:12.338Z,3.87
2022-12-26T04:11:17.675Z,3.85
2022-12-26T04:13:23.097Z,3.84
2022-12-26T04:15:28.486Z,3.8
2022-12-26T04:17:33.981Z,3.86
2022-12-26T04:19:39.300Z,3.86
2022-12-26T04:21:44.533Z,3.83
2022-12-26T04:23:49.576Z,3.78
2022-12-26T04:25:54.664Z,3.84
2022-12-26T04:28:00.162Z,3.89
2022-12-26T04:30:05.575Z,3.88
2022-12-26T04:32:10.710Z,3.89
2022-12-26T04:34:16.235Z,3.87
2022-12-26T04:36:22.629Z,3.88
2022-12-26T04:38:28.218Z,3.9
2022-12-26T04:40:33.920Z,3.9
2022-12-26T04:42:39.424Z,3.88
2022-12-26T04:44:44.695Z,3.91
2022-12-26T04:46:49.997Z,3.87
2022-12-26T04:48:56.816Z,3.89
2022-12-26T04:51:05.137Z,3.97
2022-12-26T04:53:10.296Z,3.95
2022-12-26T04:55:15.426Z,3.92
2022-12-26T04:57:22.043Z,3.94
2022-12-26T04:59:27.199Z,3.97
2022-12-26T05:01:32.388Z,3.94
2022-12-26T05:03:38.857Z,3.96
2022-12-26T05:05:44.266Z,4
2022-12-26T05:07:49.581Z,3.98
2022-12-26T05:09:55.046Z,3.96
2022-12-26T05:12:01.501Z,3.95
2022-12-26T05:14:07.005Z,3.98
2022-12-26T05:16:12.673Z,4.02
2022-12-26T05:18:18.687Z,4.01
2022-12-26T05:20:25.563Z,4
2022-12-26T05:22:30.675Z,4
2022-12-26T05:24:35.925Z,4.02
2022-12-26T05:26:41.382Z,3.99
2022-12-26T05:28:46.871Z,4
2022-12-26T05:30:52.117Z,4.02
2022-12-26T05:32:57.468Z,4.04
2022-12-26T05:35:03.831Z,4.09
2022-12-26T05:37:08.800Z,4.13
2022-12-26T05:39:14.087Z,4.08
2022-12-26T05:41:19.484Z,4.07
2022-12-26T05:43:24.858Z,4.08
2022-12-26T05:45:30.033Z,4.07
2022-12-26T05:47:35.330Z,4
2022-12-26T05:49:40.771Z,3.98
2022-12-26T05:51:45.859Z,4.02
2022-12-26T05:53:50.962Z,4.04
2022-12-26T05:55:56.409Z,4.1
2022-12-26T05:58:02.377Z,4.09
2022-12-26T06:00:07.545Z,4.11
2022-12-26T06:02:13.039Z,4.1
2022-12-26T06:04:19.010Z,4.09
2022-12-26T06:06:24.621Z,4.1
2022-12-26T06:08:29.706Z,4.1
2022-12-26T06:10:35.067Z,4.07
2022-12-26T06:12:40.696Z,4.04
2022-12-26T06:14:46.098Z,4.09
2022-12-26T06:16:51.349Z,4.07
2022-12-26T06:18:57.381Z,4.09
2022-12-26T06:21:02.736Z,4.11
2022-12-26T06:23:07.972Z,4.11
2022-12-26T06:25:13.076Z,4.11
2022-12-26T06:27:19.103Z,4.08
2022-12-26T06:29:24.742Z,4.09
2022-12-26T06:31:30.548Z,4.15
2022-12-26T06:33:36.528Z,4.12
2022-12-26T06:35:42.112Z,4.06
2022-12-26T06:37:47.247Z,4.07
2022-12-26T06:39:52.590Z,4.05
2022-12-26T06:41:57.932Z,4.13
2022-12-26T06:44:03.463Z,4.14
2022-12-26T06:46:09.050Z,4.06
2022-12-26T06:48:14.541Z,4.13
2022-12-26T06:50:20.027Z,4.18
2022-12-26T06:52:25.106Z,4.17
2022-12-26T06:54:30.477Z,4.18
2022-12-26T06:56:36.210Z,4.2
2022-12-26T06:58:41.676Z,4.21
2022-12-26T07:00:47.158Z,4.24
2022-12-26T07:02:53.231Z,4.2
2022-12-26T07:05:02.589Z,4.23
2022-12-26T07:07:08.557Z,4.18
2022-12-26T07:09:14.242Z,4.23
2022-12-26T07:11:20.350Z,4.23
2022-12-26T07:13:26.619Z,4.19
2022-12-26T07:15:32.416Z,4.26
2022-12-26T07:17:38.311Z,4.31
2022-12-26T07:19:43.588Z,4.29
2022-12-26T07:21:49.611Z,4.32
2022-12-26T07:23:55.471Z,4.32
2022-12-26T07:26:01.340Z,4.33
2022-12-26T07:28:07.657Z,4.33
2022-12-26T07:30:15.450Z,4.32
2022-12-26T07:32:27.254Z,4.36
2022-12-26T07:34:33.180Z,4.33
2022-12-26T07:36:39.128Z,4.36
2022-12-26T07:38:44.622Z,4.31
2022-12-26T07:40:50.541Z,4.39
2022-12-26T07:42:56.778Z,4.42
2022-12-26T07:45:02.632Z,4.42
2022-12-26T07:47:08.291Z,4.41
2022-12-26T07:49:14.558Z,4.45
2022-12-26T07:53:46.860Z,4.48
2022-12-26T07:55:53.379Z,4.51
2022-12-26T07:57:59.677Z,4.51
2022-12-26T08:00:05.703Z,4.6
2022-12-26T08:02:11.981Z,4.65
2022-12-26T08:04:19.283Z,4.63
2022-12-26T08:06:25.757Z,4.65
2022-12-26T08:08:31.847Z,4.71
2022-12-26T08:10:37.644Z,4.68
2022-12-26T08:12:43.946Z,4.67
2022-12-26T08:14:50.116Z,4.7
2022-12-26T08:16:56.333Z,4.62
2022-12-26T08:19:02.916Z,4.71
2022-12-26T08:21:08.990Z,4.73
2022-12-26T08:23:15.348Z,4.74
2022-12-26T08:25:21.993Z,4.73
2022-12-26T08:27:28.331Z,4.7
2022-12-26T08:29:34.330Z,4.72
2022-12-26T08:31:40.792Z,4.75
2022-12-26T08:33:47.271Z,4.8
2022-12-26T08:35:53.557Z,4.87
2022-12-26T08:37:59.617Z,4.92
2022-12-26T08:40:06.676Z,5.01
2022-12-26T08:42:15.075Z,5.12
2022-12-26T08:44:29.157Z,5.3
2022-12-26T08:46:35.812Z,5.3
2022-12-26T08:48:41.874Z,5.35
2022-12-26T08:50:48.014Z,5.34
2022-12-26T08:52:53.979Z,5.28
2022-12-26T08:55:00.795Z,5.16
2022-12-26T08:57:06.615Z,5.23
2022-12-26T08:59:13.551Z,5.26
2022-12-26T09:01:19.884Z,5.34
2022-12-26T09:03:26.742Z,5.42
2022-12-26T09:05:32.657Z,5.42
2022-12-26T09:07:38.519Z,5.47
2022-12-26T09:09:44.561Z,5.45
2022-12-26T09:11:50.521Z,5.46
2022-12-26T09:13:56.537Z,5.48
2022-12-26T09:16:03.412Z,5.5
2022-12-26T09:18:09.735Z,5.54
2022-12-26T09:20:17.023Z,5.6
2022-12-26T09:22:23.182Z,5.62
2022-12-26T09:24:37.294Z,5.67
2022-12-26T09:26:43.663Z,5.74
2022-12-26T09:28:49.792Z,5.84
2022-12-26T09:30:56.173Z,5.89
2022-12-26T09:33:03.063Z,5.96
2022-12-26T09:35:10.211Z,5.85
2022-12-26T09:37:16.781Z,5.94
2022-12-26T09:39:22.849Z,5.99
2022-12-26T09:41:29.437Z,6.01
2022-12-26T09:43:35.552Z,5.91
2022-12-26T09:45:45.073Z,5.9
2022-12-26T09:47:52.000Z,5.97
2022-12-26T09:49:58.451Z,5.98
2022-12-26T09:52:04.179Z,6.06
2022-12-26T09:54:10.028Z,6.05
2022-12-26T09:56:36.859Z,6.08
2022-12-26T09:59:17.154Z,6.02
2022-12-26T10:01:23.390Z,6.07
2022-12-26T10:03:29.979Z,6.06
2022-12-26T10:05:36.329Z,6.13
2022-12-26T10:07:42.528Z,6.21
2022-12-26T10:09:50.567Z,6.27
2022-12-26T10:11:56.867Z,6.28
2022-12-26T10:14:04.250Z,6.28
2022-12-26T10:16:10.988Z,6.25
2022-12-26T10:18:17.889Z,6.31
2022-12-26T10:20:24.926Z,6.34
2022-12-26T10:22:33.730Z,6.43
2022-12-26T10:24:40.235Z,6.49
2022-12-26T10:26:47.328Z,6.58
2022-12-26T10:28:53.395Z,6.64
2022-12-26T10:31:00.191Z,6.64
2022-12-26T10:33:07.722Z,6.71
2022-12-26T10:35:14.197Z,6.7
2022-12-26T10:37:20.509Z,6.74
2022-12-26T10:39:28.575Z,6.73
2022-12-26T10:41:35.205Z,6.79
2022-12-26T10:43:42.289Z,6.9
2022-12-26T10:45:52.697Z,7
2022-12-26T10:47:58.854Z,7.06
2022-12-26T10:50:05.084Z,7.18
2022-12-26T10:52:12.606Z,7.21
2022-12-26T10:54:18.701Z,7.3
2022-12-26T10:56:24.578Z,7.36
2022-12-26T10:58:30.444Z,7.35
2022-12-26T11:00:37.776Z,7.46
2022-12-26T11:02:44.243Z,7.52
2022-12-26T11:05:13.490Z,7.59
2022-12-26T11:08:23.941Z,7.61
2022-12-26T11:10:30.585Z,7.66
2022-12-26T11:12:36.495Z,7.74
2022-12-26T11:14:41.911Z,7.8
2022-12-26T11:16:47.591Z,7.84
2022-12-26T11:18:53.647Z,7.84
2022-12-26T11:20:59.841Z,7.93
2022-12-26T11:23:15.318Z,8.09
2022-12-26T11:25:22.025Z,8.18
2022-12-26T11:27:28.732Z,8.24
2022-12-26T11:33:11.884Z,8.52
2022-12-26T11:42:31.925Z,8.85
2022-12-26T11:44:38.195Z,9.02
2022-12-26T11:46:44.574Z,9.17
2022-12-26T11:48:51.261Z,9.35
2022-12-26T11:50:57.895Z,9.42
2022-12-26T11:53:06.225Z,9.51
2022-12-26T11:55:12.398Z,9.54
2022-12-26T11:57:21.131Z,9.46
2022-12-26T11:59:28.247Z,9.54
2022-12-26T12:01:34.382Z,9.64
2022-12-26T12:03:47.125Z,9.76
2022-12-26T12:05:55.630Z,9.89
2022-12-26T12:08:01.910Z,9.99
2022-12-26T12:10:09.174Z,9.99
2022-12-26T12:12:15.722Z,9.8
2022-12-26T12:14:22.159Z,9.76
2022-12-26T12:16:28.757Z,9.76
2022-12-26T12:18:35.489Z,9.73
2022-12-26T12:20:41.580Z,9.81
2022-12-26T12:22:55.835Z,9.87
2022-12-26T12:25:03.199Z,9.88
2022-12-26T12:27:09.988Z,9.93
2022-12-26T12:29:16.216Z,10.03
2022-12-26T12:31:22.577Z,9.98
2022-12-26T12:33:28.977Z,10.05
2022-12-26T12:35:35.465Z,10.09
2022-12-26T12:37:41.638Z,10.16
2022-12-26T12:39:48.335Z,10.27
2022-12-26T12:41:54.699Z,10.21
2022-12-26T12:44:01.375Z,10.18
2022-12-26T12:46:10.370Z,10.05
2022-12-26T12:48:16.085Z,10.01
2022-12-26T12:50:22.704Z,9.92
2022-12-26T12:52:29.067Z,9.92
2022-12-26T12:54:35.109Z,10.03
2022-12-26T12:56:42.521Z,9.99
2022-12-26T12:58:51.943Z,9.92
2022-12-26T13:01:10.894Z,9.84
2022-12-26T13:03:17.589Z,9.73
2022-12-26T13:05:30.993Z,9.67
2022-12-26T13:07:45.234Z,9.58
2022-12-26T13:10:00.115Z,9.63
2022-12-26T13:12:12.654Z,9.69
2022-12-26T13:14:19.094Z,9.83
2022-12-26T13:16:29.172Z,9.77
2022-12-26T13:18:38.492Z,9.67
2022-12-26T13:20:47.977Z,9.73
2022-12-26T13:23:02.032Z,9.68
2022-12-26T13:25:10.920Z,9.66
2022-12-26T13:27:20.402Z,9.67
2022-12-26T13:29:33.239Z,9.66
2022-12-26T13:31:48.544Z,9.61
2022-12-26T13:34:03.150Z,9.61
2022-12-26T13:36:12.585Z,9.55
2022-12-26T13:38:19.856Z,9.47
2022-12-26T13:40:29.170Z,9.37
2022-12-26T13:53:17.899Z,9.17
2022-12-26T13:55:30.667Z,9.12
2022-12-26T13:57:41.207Z,9
2022-12-26T13:59:48.164Z,9.05
2022-12-26T14:05:23.687Z,8.66
2022-12-26T14:07:58.381Z,8.63
2022-12-26T14:15:39.669Z,8.37
2022-12-26T14:17:49.358Z,8.33
2022-12-26T14:20:01.941Z,8.23
2022-12-26T14:22:09.151Z,8.06
2022-12-26T14:24:35.246Z,7.9
2022-12-26T14:26:45.290Z,7.72
2022-12-26T14:28:54.261Z,7.51
2022-12-26T14:31:04.992Z,7.34
2022-12-26T14:33:17.145Z,7.2
2022-12-26T14:35:24.020Z,7.15
2022-12-26T14:37:31.003Z,7.07
2022-12-26T14:39:40.407Z,7
2022-12-26T14:41:58.889Z,6.94
2022-12-26T14:44:08.587Z,7.06
2022-12-26T14:46:18.467Z,7.15
2022-12-26T14:48:29.455Z,7.33
2022-12-26T14:50:39.907Z,7.53
2022-12-26T14:52:52.936Z,7.51
2022-12-26T15:09:51.391Z,8.26
2022-12-26T15:13:05.301Z,8.42
2022-12-26T15:51:53.928Z,9.05
2022-12-26T15:57:57.129Z,9.13
2022-12-26T16:00:41.247Z,9.13
2022-12-26T16:02:47.865Z,9.16
2022-12-26T16:05:00.866Z,9.21
2022-12-26T16:07:20.646Z,9.31
2022-12-26T16:09:32.680Z,9.29
2022-12-26T16:11:41.013Z,9.32
2022-12-26T16:13:49.852Z,9.24
2022-12-26T16:18:56.325Z,9.21
2022-12-26T16:21:02.816Z,9.17
2022-12-26T16:23:10.577Z,9.17
2022-12-26T16:25:19.282Z,9.12
2022-12-26T16:27:27.388Z,9.05
2022-12-26T16:29:34.081Z,9
2022-12-26T16:31:45.847Z,9.02
2022-12-26T16:33:53.060Z,9.06
2022-12-26T16:36:04.732Z,9.06
2022-12-26T16:38:42.638Z,9
2022-12-26T16:40:49.581Z,9.07
2022-12-26T16:42:57.207Z,9.11
2022-12-26T16:45:04.440Z,9.14
2022-12-26T16:47:11.354Z,9.15
2022-12-26T16:49:18.043Z,9.15
2022-12-26T16:51:24.774Z,9.17
2022-12-26T16:53:31.951Z,9.21
2022-12-26T16:55:38.673Z,9.21
2022-12-26T16:57:47.464Z,9.24
2022-12-26T16:59:53.474Z,9.23
2022-12-26T17:02:00.442Z,9.25
2022-12-26T17:04:08.497Z,9.31
2022-12-26T17:06:14.760Z,9.32
2022-12-26T17:08:48.865Z,9.35
2022-12-26T17:11:02.731Z,9.32
2022-12-26T17:13:08.576Z,9.36
2022-12-26T17:15:14.343Z,9.34
2022-12-26T17:17:21.908Z,9.33
2022-12-26T17:19:28.935Z,9.33
2022-12-26T17:21:35.511Z,9.26
2022-12-26T17:26:55.886Z,9.06
2022-12-26T17:29:24.035Z,9.03
2022-12-26T17:32:16.756Z,8.9
2022-12-26T17:34:52.154Z,8.85
2022-12-26T17:39:37.815Z,8.83
2022-12-26T17:41:47.878Z,8.8
2022-12-26T17:43:54.911Z,8.78
2022-12-26T17:46:05.793Z,8.78
2022-12-26T17:48:16.011Z,8.74
2022-12-26T17:50:22.240Z,8.73
2022-12-26T17:52:30.296Z,8.74
2022-12-26T17:54:40.155Z,8.76
2022-12-26T18:00:16.355Z,8.88
2022-12-26T18:02:23.871Z,8.9
2022-12-26T18:04:32.226Z,8.89
2022-12-26T18:06:39.508Z,8.91
2022-12-26T18:08:46.391Z,8.93
2022-12-26T18:10:53.182Z,8.88
2022-12-26T18:13:00.482Z,8.91
2022-12-26T18:15:06.544Z,8.88
2022-12-26T18:17:11.932Z,8.83
2022-12-26T18:19:20.590Z,8.83
2022-12-26T18:21:27.920Z,8.8
2022-12-26T18:23:35.171Z,8.83
2022-12-26T18:25:44.182Z,8.82
2022-12-26T18:28:00.270Z,8.81
2022-12-26T18:30:09.026Z,8.82
2022-12-26T18:32:16.490Z,8.8
2022-12-26T18:34:26.757Z,8.77
2022-12-26T18:36:34.232Z,8.78
2022-12-26T18:38:41.780Z,8.8
2022-12-26T18:40:51.549Z,8.81
2022-12-26T18:42:59.921Z,8.79
2022-12-26T18:45:07.031Z,8.82
2022-12-26T18:47:14.550Z,8.83
2022-12-26T18:49:22.812Z,8.88
2022-12-26T18:51:30.976Z,8.9
2022-12-26T18:53:37.634Z,8.91
2022-12-26T18:55:45.691Z,8.94
2022-12-26T19:08:00.568Z,9.04
2022-12-26T19:10:10.706Z,9
2022-12-26T19:12:17.810Z,8.99
2022-12-26T19:14:24.549Z,8.94
2022-12-26T19:16:31.321Z,8.94
2022-12-26T19:18:39.407Z,8.93
2022-12-26T19:20:47.831Z,8.98
2022-12-26T19:25:44.908Z,8.97
2022-12-26T19:27:52.647Z,8.98
2022-12-26T19:30:02.380Z,8.96
2022-12-26T19:32:11.067Z,8.97
2022-12-26T19:34:18.294Z,8.98
2022-12-26T19:36:25.276Z,8.95
2022-12-26T19:38:33.532Z,8.96
2022-12-26T19:40:42.023Z,8.92
2022-12-26T19:42:50.891Z,8.88
2022-12-26T19:44:59.958Z,8.87
2022-12-26T19:47:11.229Z,8.87
2022-12-26T19:49:33.516Z,8.87
2022-12-26T19:51:41.739Z,8.85
2022-12-26T19:53:50.825Z,8.83
2022-12-26T19:55:59.945Z,8.84
2022-12-26T19:58:11.657Z,8.84
2022-12-26T20:00:20.500Z,8.87
2022-12-26T20:02:27.137Z,8.87
2022-12-26T20:04:35.850Z,8.91
2022-12-26T20:06:47.934Z,8.92
2022-12-26T20:08:58.109Z,8.95
2022-12-26T20:11:05.765Z,8.96
2022-12-26T20:13:15.436Z,8.96
2022-12-26T20:15:24.985Z,8.92
2022-12-26T20:17:31.606Z,8.94
2022-12-26T20:19:39.208Z,8.88
2022-12-26T20:21:49.215Z,8.87
2022-12-26T20:23:57.519Z,8.85
2022-12-26T20:26:04.806Z,8.91
2022-12-26T20:28:12.252Z,8.94
2022-12-26T20:30:20.610Z,8.87
2022-12-26T20:32:29.493Z,8.82
2022-12-26T20:34:37.824Z,8.75
2022-12-26T20:36:45.127Z,8.84
2022-12-26T20:38:53.102Z,8.9
2022-12-26T20:41:04.079Z,8.88
2022-12-26T20:43:15.395Z,8.78
2022-12-26T20:45:23.943Z,8.78
2022-12-26T20:47:34.489Z,8.72
2022-12-26T20:49:43.011Z,8.71
2022-12-26T20:51:55.113Z,8.62
2022-12-26T20:54:05.280Z,8.64
2022-12-26T20:56:14.095Z,8.59
2022-12-26T20:58:25.251Z,8.52
2022-12-26T21:00:32.972Z,8.49
2022-12-26T21:02:43.218Z,8.42
2022-12-26T21:04:50.662Z,8.35
2022-12-26T21:06:58.149Z,8.38
2022-12-26T21:09:05.403Z,8.36
2022-12-26T21:11:12.653Z,8.42
2022-12-26T21:13:19.362Z,8.44
2022-12-26T21:15:26.603Z,8.45
2022-12-26T21:17:34.254Z,8.46
2022-12-26T21:19:40.467Z,8.49
2022-12-26T21:21:48.293Z,8.41
2022-12-26T21:23:54.716Z,8.5
2022-12-26T21:26:04.144Z,8.51
2022-12-26T21:28:15.038Z,8.4
2022-12-26T21:30:24.016Z,8.41
2022-12-26T21:32:30.636Z,8.35
2022-12-26T21:34:40.289Z,8.39
2022-12-26T21:36:47.929Z,8.38
2022-12-26T21:38:53.913Z,8.33
2022-12-26T21:41:01.020Z,8.36
2022-12-26T21:43:08.953Z,8.28
2022-12-26T21:45:14.484Z,8.18
2022-12-26T21:47:20.040Z,8.1
2022-12-26T21:49:27.261Z,8.01
2022-12-26T21:51:33.529Z,7.95
2022-12-26T21:53:44.373Z,7.93
2022-12-26T21:55:50.651Z,7.9
2022-12-26T21:57:55.910Z,7.97
2022-12-26T22:00:02.010Z,8.01
2022-12-26T22:02:08.461Z,8.03
2022-12-26T22:04:15.974Z,7.99
2022-12-26T22:06:22.348Z,7.97
2022-12-26T22:08:28.743Z,7.93
2022-12-26T22:10:38.078Z,7.9
2022-12-26T22:12:44.685Z,7.83
2022-12-26T22:14:51.610Z,7.81
2022-12-26T22:16:57.811Z,7.73
2022-12-26T22:19:04.404Z,7.73
2022-12-26T22:21:10.582Z,7.66
2022-12-26T22:23:17.175Z,7.54
2022-12-26T22:25:23.523Z,7.53
2022-12-26T22:27:29.593Z,7.48
2022-12-26T22:29:35.315Z,7.41
2022-12-26T22:31:41.434Z,7.54
2022-12-26T22:33:47.467Z,7.45
2022-12-26T22:35:53.490Z,7.4
2022-12-26T22:37:58.599Z,7.38
2022-12-26T22:40:09.795Z,7.31
2022-12-26T22:42:15.143Z,7.34
2022-12-26T22:44:21.488Z,7.26
2022-12-26T22:46:26.924Z,7.2
2022-12-26T22:48:32.803Z,7.15
2022-12-26T22:52:59.385Z,7.07
2022-12-26T22:55:05.047Z,7.02
2022-12-26T22:57:11.351Z,6.93
2022-12-26T22:59:34.060Z,6.89
2022-12-26T23:02:16.805Z,6.92
2022-12-26T23:04:28.651Z,7
2022-12-26T23:06:34.217Z,7.07
2022-12-26T23:08:39.452Z,7.11
2022-12-26T23:10:46.979Z,7.12
2022-12-26T23:12:52.541Z,7.2
2022-12-26T23:14:59.186Z,7.24
2022-12-26T23:17:04.710Z,7.28
2022-12-26T23:19:10.693Z,7.32
2022-12-26T23:21:16.228Z,7.42
2022-12-26T23:23:21.683Z,7.51
2022-12-26T23:25:26.939Z,7.54
2022-12-26T23:27:34.907Z,7.53
2022-12-26T23:29:40.323Z,7.52
2022-12-26T23:31:48.876Z,7.66
2022-12-26T23:33:54.125Z,7.67
2022-12-26T23:35:59.618Z,7.64
2022-12-26T23:38:05.376Z,7.63
2022-12-26T23:40:10.713Z,7.72
2022-12-26T23:42:18.229Z,7.7
2022-12-26T23:44:27.511Z,7.64
2022-12-26T23:46:32.991Z,7.6
2022-12-26T23:48:38.814Z,7.59
2022-12-26T23:50:44.047Z,7.63
2022-12-26T23:52:49.215Z,7.65
2022-12-26T23:54:54.522Z,7.67
2022-12-26T23:56:59.788Z,7.73
2022-12-26T23:59:05.184Z,7.75
